Time;durP1;ratioP1;P1;durP2;ratioP2;P2;SDS_P1;SDS_P2;PMS_P1;PMS_P2;Temp;Humidity;BMP_temperature;BMP_pressure;BME280_temperature;BME280_humidity;BME280_pressure;Samples;Min_cycle;Max_cycle;Signal;HPM_P1;HPM_P2
2022/01/17 00:01:33;;;;;;;;;;;;;;;;;;5114558;28;20036;-87
2022/01/17 00:04:00;;;;;;;;;;;;;;;;;;5114495;28;20038;-86
2022/01/17 00:06:27;;;;;;;;;;;;;;;;;;5114436;28;20046;-87
2022/01/17 00:08:54;;;;;;;;;;;;;;;;;;5114203;28;20480;-86
2022/01/17 00:11:21;;;;;;;;;;;;;;;;;;5114103;28;20033;-87
2022/01/17 00:13:48;;;;;;;;;;;;;;;;;;5114363;28;19995;-86
2022/01/17 00:16:19;;;;;;;;;;;;;;;;;;5114143;28;20456;-86
2022/01/17 00:21:45;;;;;;;;;;;;;;;;;;5051384;28;20467;-85
2022/01/17 00:24:12;;;;;;;;;;;;;;;;;;5051335;28;20037;-86
2022/01/17 00:26:39;;;;;;;;;;;;;;;;;;5078702;28;20038;-84
2022/01/17 00:29:06;;;;;;;;;;;;;;;;;;5114268;28;20043;-85
2022/01/17 00:31:33;;;;;;;;;;;;;;;;;;5114088;28;20039;-85
2022/01/17 00:34:00;;;;;;;;;;;;;;;;;;5113821;28;20461;-86
2022/01/17 00:36:27;;;;;;;;;;;;;;;;;;5113940;28;20042;-86
2022/01/17 00:38:54;;;;;;;;;;;;;;;;;;5113966;28;20066;-85
2022/01/17 00:41:21;;;;;;;;;;;;;;;;;;5113934;28;20046;-85
2022/01/17 00:43:48;;;;;;;;;;;;;;;;;;5113840;28;20035;-86
2022/01/17 00:46:15;;;;;;;;;;;;;;;;;;5114076;28;20011;-87
2022/01/17 00:48:42;;;;;;;;;;;;;;;;;;5114003;28;19951;-85
2022/01/17 00:51:09;;;;;;;;;;;;;;;;;;5113778;28;20028;-87
2022/01/17 00:53:37;;;;;;;;;;;;;;;;;;5113908;28;20042;-86
2022/01/17 00:56:04;;;;;;;;;;;;;;;;;;5113747;28;19924;-86
2022/01/17 00:58:30;;;;;;;;;;;;;;;;;;5113701;28;19963;-85
2022/01/17 01:00:57;;;;;;;;;;;;;;;;;;5114717;28;20042;-86
2022/01/17 01:03:24;;;;;;;;;;;;;;;;;;5114071;28;20043;-86
2022/01/17 01:05:51;;;;;;;;;;;;;;;;;;5113921;28;20385;-85
2022/01/17 01:08:18;;;;;;;;;;;;;;;;;;5114106;28;20037;-86
2022/01/17 01:10:45;;;;;;;;;;;;;;;;;;5113741;28;20145;-85
2022/01/17 01:13:12;;;;;;;;;;;;;;;;;;5113740;28;20032;-86
2022/01/17 01:15:58;;;;;;;;;;;;;;;;;;5113626;28;19971;-85
2022/01/17 01:18:38;;;;;;;;;;;;;;;;;;5113810;28;20065;-86
2022/01/17 01:29:27;;;;;;;;;;;;;;;;;;5110014;28;19944;-83
2022/01/17 01:31:59;;;;;;;;;;;;;;;;;;5117395;28;20458;-85
2022/01/17 01:34:33;;;;;;;;;;;;;;;;;;5117090;28;19997;-85
2022/01/17 01:37:02;;;;;;;;;;;;;;;;;;5116997;28;19948;-86
2022/01/17 01:39:29;;;;;;;;;;;;;;;;;;5117159;28;19982;-86
2022/01/17 01:41:56;;;;;;;;;;;;;;;;;;5116949;28;20054;-86
2022/01/17 01:44:23;;;;;;;;;;;;;;;;;;5117176;28;19950;-86
2022/01/17 01:46:50;;;;;;;;;;;;;;;;;;5116933;28;19998;-87
2022/01/17 01:49:17;;;;;;;;;;;;;;;;;;5116687;28;20411;-85
2022/01/17 01:51:44;;;;;;;;;;;;;;;;;;5117308;28;19957;-86
2022/01/17 01:54:11;;;;;;;;;;;;;;;;;;5117341;28;20055;-86
2022/01/17 01:56:38;;;;;;;;;;;;;;;;;;5117197;28;20058;-87
2022/01/17 01:59:05;;;;;;;;;;;;;;;;;;5117044;28;20414;-86
2022/01/17 02:01:32;;;;;;;;;;;;;;;;;;5116499;28;20051;-86
2022/01/17 02:03:59;;;;;;;;;;;;;;;;;;5116443;28;20412;-86
2022/01/17 02:06:26;;;;;;;;;;;;;;;;;;5116813;28;20057;-86
2022/01/17 02:08:53;;;;;;;;;;;;;;;;;;5116739;28;19979;-86
2022/01/17 02:11:20;;;;;;;;;;;;;;;;;;5116483;28;19991;-86
2022/01/17 02:13:47;;;;;;;;;;;;;;;;;;5116726;28;19951;-86
2022/01/17 02:16:16;;;;;;;;;;;;;;;;;;5116135;28;19971;-87
2022/01/17 02:18:43;;;;;;;;;;;;;;;;;;5116339;28;19970;-85
2022/01/17 02:21:17;;;;;;;;;;;;;;;;;;5116359;28;20038;-86
2022/01/17 02:23:44;;;;;;;;;;;;;;;;;;5116243;28;20396;-85
2022/01/17 02:26:11;;;;;;;;;;;;;;;;;;5116690;28;20049;-86
2022/01/17 02:28:39;;;;;;;;;;;;;;;;;;5116078;28;19958;-85
2022/01/17 02:31:06;;;;;;;;;;;;;;;;;;5115884;28;20421;-86
2022/01/17 02:33:33;;;;;;;;;;;;;;;;;;5116254;28;20041;-85
2022/01/17 02:36:00;;;;;;;;;;;;;;;;;;5117418;28;19994;-87
2022/01/17 02:38:27;;;;;;;;;;;;;;;;;;5116293;28;20464;-87
2022/01/17 02:40:54;;;;;;;;;;;;;;;;;;5116354;28;20065;-85
2022/01/17 02:43:22;;;;;;;;;;;;;;;;;;5116427;28;20034;-85
2022/01/17 02:48:33;;;;;;;;;;;;;;;;;;5115710;28;19989;-85
2022/01/17 02:51:00;;;;;;;;;;;;;;;;;;5115836;28;20000;-87
2022/01/17 02:53:27;;;;;;;;;;;;;;;;;;5115546;28;20044;-86
2022/01/17 02:55:54;;;;;;;;;;;;;;;;;;5115544;28;20011;-86
2022/01/17 02:58:21;;;;;;;;;;;;;;;;;;5115454;28;19968;-86
2022/01/17 03:00:48;;;;;;;;;;;;;;;;;;5115456;28;20042;-85
2022/01/17 03:03:15;;;;;;;;;;;;;;;;;;5115401;28;20357;-85
2022/01/17 03:05:42;;;;;;;;;;;;;;;;;;5115329;28;20032;-83
2022/01/17 03:08:09;;;;;;;;;;;;;;;;;;5115318;28;19961;-86
2022/01/17 03:10:39;;;;;;;;;;;;;;;;;;5114988;28;20052;-84
2022/01/17 03:13:06;;;;;;;;;;;;;;;;;;5115361;28;20013;-86
2022/01/17 03:15:33;;;;;;;;;;;;;;;;;;5115050;28;19974;-86
2022/01/17 03:18:00;;;;;;;;;;;;;;;;;;5115361;28;20031;-85
2022/01/17 03:20:27;;;;;;;;;;;;;;;;;;5115248;28;19960;-86
2022/01/17 03:22:54;;;;;;;;;;;;;;;;;;5115187;28;19998;-84
2022/01/17 03:25:21;;;;;;;;;;;;;;;;;;5115020;28;20038;-85
2022/01/17 03:27:48;;;;;;;;;;;;;;;;;;5115026;28;20038;-86
2022/01/17 03:30:15;;;;;;;;;;;;;;;;;;5114885;28;20036;-85
2022/01/17 03:32:42;;;;;;;;;;;;;;;;;;5115258;28;20463;-86
2022/01/17 03:35:09;;;;;;;;;;;;;;;;;;5114985;28;20030;-86
2022/01/17 03:37:36;;;;;;;;;;;;;;;;;;5115696;28;20015;-85
2022/01/17 03:40:03;;;;;;;;;;;;;;;;;;5115379;28;19969;-86
2022/01/17 03:42:30;;;;;;;;;;;;;;;;;;5114892;28;20045;-86
2022/01/17 03:44:57;;;;;;;;;;;;;;;;;;5114482;28;20368;-87
2022/01/17 03:47:24;;;;;;;;;;;;;;;;;;5114742;28;20037;-87
2022/01/17 03:49:51;;;;;;;;;;;;;;;;;;5114612;28;20036;-86
2022/01/17 03:52:18;;;;;;;;;;;;;;;;;;5114493;28;19957;-86
2022/01/17 03:54:45;;;;;;;;;;;;;;;;;;5114328;28;20027;-87
2022/01/17 03:57:12;;;;;;;;;;;;;;;;;;5114376;28;20031;-86
2022/01/17 03:59:39;;;;;;;;;;;;;;;;;;5114110;28;19966;-85
2022/01/17 04:02:06;;;;;;;;;;;;;;;;;;5114366;28;20489;-86
2022/01/17 04:04:33;;;;;;;;;;;;;;;;;;5114194;28;20039;-86
2022/01/17 04:07:00;;;;;;;;;;;;;;;;;;5114424;28;20033;-85
2022/01/17 04:09:27;;;;;;;;;;;;;;;;;;5114292;28;19952;-84
2022/01/17 04:11:54;;;;;;;;;;;;;;;;;;5114310;28;20034;-84
2022/01/17 04:14:21;;;;;;;;;;;;;;;;;;5113795;28;20410;-86
2022/01/17 04:16:48;;;;;;;;;;;;;;;;;;5114490;28;19951;-87
2022/01/17 04:19:17;;;;;;;;;;;;;;;;;;5114501;28;20055;-86
2022/01/17 04:21:46;;;;;;;;;;;;;;;;;;5114076;28;19963;-87
2022/01/17 04:24:13;;;;;;;;;;;;;;;;;;5114638;28;19947;-86
2022/01/17 04:26:42;;;;;;;;;;;;;;;;;;5114189;28;20047;-87
2022/01/17 04:29:09;;;;;;;;;;;;;;;;;;5114407;28;20000;-85
2022/01/17 04:31:36;;;;;;;;;;;;;;;;;;5114288;28;19982;-87
2022/01/17 04:34:03;;;;;;;;;;;;;;;;;;5114080;28;20023;-87
2022/01/17 04:36:30;;;;;;;;;;;;;;;;;;5113952;28;20464;-86
2022/01/17 04:38:57;;;;;;;;;;;;;;;;;;5113943;28;20015;-86
2022/01/17 04:41:35;;;;;;;;;;;;;;;;;;5113896;28;20034;-85
2022/01/17 04:45:07;;;;;;;;;;;;;;;;;;5113879;28;19960;-86
2022/01/17 04:46:49;;;;;;;;;;;;;;;;;;5113641;28;19972;-86
2022/01/17 04:49:16;;;;;;;;;;;;;;;;;;5114042;28;20046;-85
2022/01/17 04:51:45;;;;;;;;;;;;;;;;;;5113708;28;19995;-86
2022/01/17 04:54:36;;;;;;;;;;;;;;;;;;5113745;28;19947;-86
2022/01/17 04:57:03;;;;;;;;;;;;;;;;;;5114414;28;19950;-87
2022/01/17 04:59:30;;;;;;;;;;;;;;;;;;5117833;28;20497;-86
2022/01/17 05:01:57;;;;;;;;;;;;;;;;;;5117791;28;19956;-86
2022/01/17 05:04:24;;;;;;;;;;;;;;;;;;5117890;28;20046;-86
2022/01/17 05:06:51;;;;;;;;;;;;;;;;;;5117684;28;20377;-85
2022/01/17 05:09:18;;;;;;;;;;;;;;;;;;5117649;28;20044;-86
2022/01/17 05:11:45;;;;;;;;;;;;;;;;;;5118217;28;20005;-86
2022/01/17 05:14:12;;;;;;;;;;;;;;;;;;5117483;28;20022;-85
2022/01/17 05:16:44;;;;;;;;;;;;;;;;;;5117877;28;19956;-86
2022/01/17 05:21:56;;;;;;;;;;;;;;;;;;5117540;28;19942;-86
2022/01/17 05:24:23;;;;;;;;;;;;;;;;;;5117716;28;20051;-86
2022/01/17 05:26:50;;;;;;;;;;;;;;;;;;5117381;28;20048;-87
2022/01/17 05:29:17;;;;;;;;;;;;;;;;;;5117581;28;19988;-85
2022/01/17 05:31:44;;;;;;;;;;;;;;;;;;5117263;28;20048;-85
2022/01/17 05:34:11;;;;;;;;;;;;;;;;;;5117216;28;20043;-85
2022/01/17 05:36:38;;;;;;;;;;;;;;;;;;5117100;28;20042;-86
2022/01/17 05:39:05;;;;;;;;;;;;;;;;;;5117331;28;20384;-85
2022/01/17 05:41:32;;;;;;;;;;;;;;;;;;5117332;28;20031;-85
2022/01/17 05:43:59;;;;;;;;;;;;;;;;;;5116953;28;19957;-84
2022/01/17 05:46:26;;;;;;;;;;;;;;;;;;5116980;28;20060;-82
2022/01/17 05:48:53;;;;;;;;;;;;;;;;;;5116899;28;20055;-84
2022/01/17 05:51:20;;;;;;;;;;;;;;;;;;5116710;28;20441;-85
2022/01/17 05:53:47;;;;;;;;;;;;;;;;;;5117212;28;20071;-86
2022/01/17 05:56:14;;;;;;;;;;;;;;;;;;5116810;28;20049;-85
2022/01/17 05:58:41;;;;;;;;;;;;;;;;;;5116395;28;19954;-85
2022/01/17 06:01:09;;;;;;;;;;;;;;;;;;5116687;28;19960;-85
2022/01/17 06:03:36;;;;;;;;;;;;;;;;;;5117115;28;19950;-85
2022/01/17 06:06:05;;;;;;;;;;;;;;;;;;5116557;28;19950;-85
2022/01/17 06:08:32;;;;;;;;;;;;;;;;;;5116342;28;19972;-87
2022/01/17 06:10:59;;;;;;;;;;;;;;;;;;5116703;28;20043;-86
2022/01/17 06:13:26;;;;;;;;;;;;;;;;;;5116519;28;20056;-86
2022/01/17 06:15:53;;;;;;;;;;;;;;;;;;5115946;28;20498;-86
2022/01/17 06:18:20;;;;;;;;;;;;;;;;;;5116446;28;20059;-85
2022/01/17 06:20:47;;;;;;;;;;;;;;;;;;5116207;28;20016;-85
2022/01/17 06:23:14;;;;;;;;;;;;;;;;;;5116550;28;20490;-85
2022/01/17 06:25:41;;;;;;;;;;;;;;;;;;5116586;28;20066;-84
2022/01/17 06:28:08;;;;;;;;;;;;;;;;;;5116493;28;20033;-85
2022/01/17 06:30:35;;;;;;;;;;;;;;;;;;5115918;28;20379;-85
2022/01/17 06:33:03;;;;;;;;;;;;;;;;;;5116272;28;20034;-84
2022/01/17 06:35:30;;;;;;;;;;;;;;;;;;5115865;28;19970;-85
2022/01/17 06:37:57;;;;;;;;;;;;;;;;;;5116006;28;19955;-85
2022/01/17 06:40:24;;;;;;;;;;;;;;;;;;5116083;28;20062;-87
2022/01/17 06:42:51;;;;;;;;;;;;;;;;;;5116165;28;19952;-86
2022/01/17 06:45:19;;;;;;;;;;;;;;;;;;5115930;28;20410;-86
2022/01/17 06:47:46;;;;;;;;;;;;;;;;;;5115681;28;20408;-86
2022/01/17 06:50:13;;;;;;;;;;;;;;;;;;5115654;28;20047;-85
2022/01/17 06:52:40;;;;;;;;;;;;;;;;;;5115643;28;19997;-86
2022/01/17 06:55:07;;;;;;;;;;;;;;;;;;5115666;28;20058;-85
2022/01/17 06:57:34;;;;;;;;;;;;;;;;;;5115470;28;20481;-85
2022/01/17 07:00:01;;;;;;;;;;;;;;;;;;5115456;28;20324;-84
2022/01/17 07:02:28;;;;;;;;;;;;;;;;;;5115722;28;20045;-85
2022/01/17 07:04:55;;;;;;;;;;;;;;;;;;5115457;28;20002;-85
2022/01/17 07:07:22;;;;;;;;;;;;;;;;;;5115467;28;20484;-84
2022/01/17 07:09:49;;;;;;;;;;;;;;;;;;5115346;28;20065;-83
2022/01/17 07:12:16;;;;;;;;;;;;;;;;;;5115508;28;20004;-86
2022/01/17 07:14:42;;;;;;;;;;;;;;;;;;5115093;28;20056;-86
2022/01/17 07:17:09;;;;;;;;;;;;;;;;;;5115492;28;20038;-85
2022/01/17 07:19:36;;;;;;;;;;;;;;;;;;5114424;28;19961;-84
2022/01/17 07:22:03;;;;;;;;;;;;;;;;;;5114961;28;20459;-86
2022/01/17 07:24:30;;;;;;;;;;;;;;;;;;5115086;28;20036;-86
2022/01/17 07:26:57;;;;;;;;;;;;;;;;;;5115242;28;20039;-85
2022/01/17 07:29:26;;;;;;;;;;;;;;;;;;5115143;28;20047;-86
2022/01/17 07:31:53;;;;;;;;;;;;;;;;;;5115034;28;19953;-85
2022/01/17 07:34:20;;;;;;;;;;;;;;;;;;5115083;28;20131;-85
2022/01/17 07:36:47;;;;;;;;;;;;;;;;;;5114923;28;20055;-86
2022/01/17 07:39:14;;;;;;;;;;;;;;;;;;5114721;28;20059;-86
2022/01/17 07:41:41;;;;;;;;;;;;;;;;;;5115398;28;20022;-86
2022/01/17 07:44:18;;;;;;;;;;;;;;;;;;5114720;28;19987;-85
2022/01/17 07:46:50;;;;;;;;;;;;;;;;;;5114498;28;20341;-86
2022/01/17 07:49:19;;;;;;;;;;;;;;;;;;5114481;28;20326;-85
2022/01/17 07:51:46;;;;;;;;;;;;;;;;;;5114615;28;20012;-85
2022/01/17 07:54:14;;;;;;;;;;;;;;;;;;5113028;28;20346;-84
2022/01/17 07:56:41;;;;;;;;;;;;;;;;;;5114236;28;19998;-84
2022/01/17 07:59:08;;;;;;;;;;;;;;;;;;5112365;28;20041;-84
2022/01/17 08:01:35;;;;;;;;;;;;;;;;;;5114137;28;20000;-84
2022/01/17 08:04:02;;;;;;;;;;;;;;;;;;5114109;28;20045;-85
2022/01/17 08:06:29;;;;;;;;;;;;;;;;;;5114261;28;20053;-85
2022/01/17 08:08:58;;;;;;;;;;;;;;;;;;5114240;28;19950;-84
2022/01/17 08:11:25;;;;;;;;;;;;;;;;;;5114295;28;20035;-83
2022/01/17 08:13:52;;;;;;;;;;;;;;;;;;5113966;28;20031;-83
2022/01/17 08:16:19;;;;;;;;;;;;;;;;;;5114083;28;20045;-83
2022/01/17 08:18:46;;;;;;;;;;;;;;;;;;5114155;28;19954;-85
2022/01/17 08:21:13;;;;;;;;;;;;;;;;;;5114054;28;20425;-85
2022/01/17 08:23:41;;;;;;;;;;;;;;;;;;5114251;28;20043;-85
2022/01/17 08:26:08;;;;;;;;;;;;;;;;;;5114286;28;19951;-84
2022/01/17 08:28:35;;;;;;;;;;;;;;;;;;5113149;28;19958;-85
2022/01/17 08:31:02;;;;;;;;;;;;;;;;;;5112219;28;19971;-85
2022/01/17 08:33:29;;;;;;;;;;;;;;;;;;5117803;28;20398;-85
2022/01/17 08:35:56;;;;;;;;;;;;;;;;;;5117797;28;20406;-84
2022/01/17 08:38:26;;;;;;;;;;;;;;;;;;5118090;28;20042;-85
2022/01/17 08:40:53;;;;;;;;;;;;;;;;;;5118550;28;20412;-84
2022/01/17 08:43:20;;;;;;;;;;;;;;;;;;5118108;28;20044;-85
2022/01/17 08:45:48;;;;;;;;;;;;;;;;;;5117927;28;20410;-83
2022/01/17 08:48:15;;;;;;;;;;;;;;;;;;5117676;28;19983;-84
2022/01/17 08:50:43;;;;;;;;;;;;;;;;;;5118053;28;19950;-85
2022/01/17 08:53:13;;;;;;;;;;;;;;;;;;5117563;28;20005;-84
2022/01/17 08:55:42;;;;;;;;;;;;;;;;;;5117773;28;20000;-85
2022/01/17 08:58:09;;;;;;;;;;;;;;;;;;5117784;28;19945;-85
2022/01/17 09:00:36;;;;;;;;;;;;;;;;;;5117449;28;19972;-84
2022/01/17 09:03:03;;;;;;;;;;;;;;;;;;5117504;28;20067;-85
2022/01/17 09:05:30;;;;;;;;;;;;;;;;;;5117703;28;19996;-85
2022/01/17 09:07:57;;;;;;;;;;;;;;;;;;5117792;28;20046;-84
2022/01/17 09:10:25;;;;;;;;;;;;;;;;;;5117523;28;20047;-84
2022/01/17 09:12:52;;;;;;;;;;;;;;;;;;5116900;28;19949;-85
2022/01/17 09:15:19;;;;;;;;;;;;;;;;;;5117133;28;20039;-84
2022/01/17 09:17:46;;;;;;;;;;;;;;;;;;5117455;28;20046;-84
2022/01/17 09:20:13;;;;;;;;;;;;;;;;;;5117382;28;19981;-85
2022/01/17 09:22:40;;;;;;;;;;;;;;;;;;5116628;27;20472;-84
2022/01/17 09:25:07;;;;;;;;;;;;;;;;;;5117082;28;20040;-83
2022/01/17 09:27:34;;;;;;;;;;;;;;;;;;5117049;28;20037;-85
2022/01/17 09:30:01;;;;;;;;;;;;;;;;;;5116952;28;20051;-85
2022/01/17 09:32:28;;;;;;;;;;;;;;;;;;5117352;28;20372;-85
2022/01/17 09:34:55;;;;;;;;;;;;;;;;;;5116947;28;20045;-84
2022/01/17 09:37:22;;;;;;;;;;;;;;;;;;5116894;28;20055;-86
2022/01/17 09:39:52;;;;;;;;;;;;;;;;;;5116522;28;20486;-86
2022/01/17 09:42:19;;;;;;;;;;;;;;;;;;5116601;28;20053;-85
2022/01/17 09:44:46;;;;;;;;;;;;;;;;;;5116418;28;20067;-86
2022/01/17 09:47:14;;;;;;;;;;;;;;;;;;5116713;28;20044;-85
2022/01/17 09:49:47;;;;;;;;;;;;;;;;;;5116468;28;19956;-88
2022/01/17 09:52:33;;;;;;;;;;;;;;;;;;5116652;28;19961;-87
2022/01/17 09:55:00;;;;;;;;;;;;;;;;;;5116535;27;19959;-85
2022/01/17 09:57:27;;;;;;;;;;;;;;;;;;5116259;28;20373;-87
2022/01/17 09:59:54;;;;;;;;;;;;;;;;;;5116443;28;20027;-86
2022/01/17 10:02:22;;;;;;;;;;;;;;;;;;5116436;28;20057;-86
2022/01/17 10:04:49;;;;;;;;;;;;;;;;;;5116286;27;20296;-86
2022/01/17 10:07:16;;;;;;;;;;;;;;;;;;5116126;28;20002;-87
2022/01/17 10:09:45;;;;;;;;;;;;;;;;;;5116284;28;20038;-85
2022/01/17 10:12:12;;;;;;;;;;;;;;;;;;5116142;28;20001;-86
2022/01/17 10:14:39;;;;;;;;;;;;;;;;;;5115825;28;20051;-85
2022/01/17 10:17:06;;;;;;;;;;;;;;;;;;5115857;28;19959;-85
2022/01/17 10:19:34;;;;;;;;;;;;;;;;;;5115997;27;20048;-86
2022/01/17 10:22:08;;;;;;;;;;;;;;;;;;5115721;28;19971;-85
2022/01/17 10:24:44;;;;;;;;;;;;;;;;;;5115647;28;19952;-85
2022/01/17 10:35:27;;;;;;;;;;;;;;;;;;5115781;28;19948;-84
2022/01/17 10:37:54;;;;;;;;;;;;;;;;;;5108315;27;20051;-84
2022/01/17 10:40:22;;;;;;;;;;;;;;;;;;5108332;28;20065;-84
2022/01/17 10:42:50;;;;;;;;;;;;;;;;;;5095400;28;20369;-85
2022/01/17 10:45:17;;;;;;;;;;;;;;;;;;5095465;28;19950;-84
2022/01/17 10:47:44;;;;;;;;;;;;;;;;;;5095616;28;20025;-84
2022/01/17 10:50:12;;;;;;;;;;;;;;;;;;5095232;28;19974;-84
2022/01/17 10:52:39;;;;;;;;;;;;;;;;;;5094927;28;20018;-85
2022/01/17 10:55:06;;;;;;;;;;;;;;;;;;5094071;28;19979;-86
2022/01/17 10:57:33;;;;;;;;;;;;;;;;;;5095630;28;19988;-84
2022/01/17 11:00:00;;;;;;;;;;;;;;;;;;5094920;28;20470;-85
2022/01/17 11:02:27;;;;;;;;;;;;;;;;;;5094811;28;20038;-85
2022/01/17 11:04:54;;;;;;;;;;;;;;;;;;5094469;28;20048;-83
2022/01/17 11:07:21;;;;;;;;;;;;;;;;;;5094481;28;20045;-85
2022/01/17 11:09:49;;;;;;;;;;;;;;;;;;5094696;28;20002;-85
2022/01/17 11:12:17;;;;;;;;;;;;;;;;;;5094609;28;20047;-84
2022/01/17 11:14:44;;;;;;;;;;;;;;;;;;5094640;28;19971;-86
2022/01/17 11:17:12;;;;;;;;;;;;;;;;;;5094767;28;20044;-85
2022/01/17 11:22:23;;;;;;;;;;;;;;;;;;5094372;28;20400;-84
2022/01/17 11:24:50;;;;;;;;;;;;;;;;;;5094698;28;20039;-86
2022/01/17 11:27:17;;;;;;;;;;;;;;;;;;5094469;28;20047;-85
2022/01/17 11:29:44;;;;;;;;;;;;;;;;;;5112490;28;20361;-84
2022/01/17 11:32:11;;;;;;;;;;;;;;;;;;5113762;28;19983;-85
2022/01/17 11:34:38;;;;;;;;;;;;;;;;;;5114617;28;20048;-84
2022/01/17 11:37:05;;;;;;;;;;;;;;;;;;5114333;28;20035;-85
2022/01/17 11:39:32;;;;;;;;;;;;;;;;;;5114723;28;20044;-85
2022/01/17 11:41:59;;;;;;;;;;;;;;;;;;5114360;28;19968;-84
2022/01/17 11:44:26;;;;;;;;;;;;;;;;;;5114281;28;20045;-84
2022/01/17 11:46:53;;;;;;;;;;;;;;;;;;5115895;28;20037;-84
2022/01/17 11:49:22;;;;;;;;;;;;;;;;;;5114796;28;20374;-82
2022/01/17 11:51:49;;;;;;;;;;;;;;;;;;5114073;28;20378;-85
2022/01/17 11:54:16;;;;;;;;;;;;;;;;;;5114306;28;19950;-85
2022/01/17 11:56:43;;;;;;;;;;;;;;;;;;5114036;28;20043;-84
2022/01/17 11:59:10;;;;;;;;;;;;;;;;;;5113979;28;19947;-85
2022/01/17 12:01:37;;;;;;;;;;;;;;;;;;5113705;28;20044;-85
2022/01/17 12:04:04;;;;;;;;;;;;;;;;;;5113858;28;19952;-85
2022/01/17 12:06:31;;;;;;;;;;;;;;;;;;5113676;28;19958;-83
2022/01/17 12:08:58;;;;;;;;;;;;;;;;;;5113807;28;20489;-83
2022/01/17 12:11:25;;;;;;;;;;;;;;;;;;5113826;28;20036;-84
2022/01/17 12:13:52;;;;;;;;;;;;;;;;;;5113855;28;20428;-83
2022/01/17 12:16:22;;;;;;;;;;;;;;;;;;5113793;28;20409;-84
2022/01/17 12:18:50;;;;;;;;;;;;;;;;;;5113276;28;20214;-84
2022/01/17 12:21:17;;;;;;;;;;;;;;;;;;5113712;28;19924;-83
2022/01/17 12:23:44;;;;;;;;;;;;;;;;;;5113835;28;20378;-83
2022/01/17 12:26:11;;;;;;;;;;;;;;;;;;5113919;28;20044;-84
2022/01/17 12:28:38;;;;;;;;;;;;;;;;;;5113736;28;20041;-84
2022/01/17 12:31:05;;;;;;;;;;;;;;;;;;5113556;28;20042;-86
2022/01/17 12:33:32;;;;;;;;;;;;;;;;;;5113713;28;19952;-84
2022/01/17 12:35:59;;;;;;;;;;;;;;;;;;5113589;28;20043;-83
2022/01/17 12:38:26;;;;;;;;;;;;;;;;;;5113465;28;20043;-84
2022/01/17 12:40:53;;;;;;;;;;;;;;;;;;5113431;28;20391;-83
2022/01/17 12:43:23;;;;;;;;;;;;;;;;;;5113318;28;19947;-84
2022/01/17 12:45:53;;;;;;;;;;;;;;;;;;5113088;28;19935;-85
2022/01/17 12:48:20;;;;;;;;;;;;;;;;;;5112276;28;19965;-84
2022/01/17 12:50:47;;;;;;;;;;;;;;;;;;5113322;28;19948;-84
2022/01/17 12:53:14;;;;;;;;;;;;;;;;;;5112653;28;20037;-84
2022/01/17 12:55:41;;;;;;;;;;;;;;;;;;5112943;28;20033;-84
2022/01/17 12:58:08;;;;;;;;;;;;;;;;;;5112807;28;20034;-84
2022/01/17 13:00:35;;;;;;;;;;;;;;;;;;5113312;28;19990;-83
2022/01/17 13:03:02;;;;;;;;;;;;;;;;;;5113043;28;20045;-85
2022/01/17 13:05:31;;;;;;;;;;;;;;;;;;5112627;28;20475;-84
2022/01/17 13:07:58;;;;;;;;;;;;;;;;;;5112811;28;20432;-85
2022/01/17 13:10:25;;;;;;;;;;;;;;;;;;5112285;28;20039;-84
2022/01/17 13:12:52;;;;;;;;;;;;;;;;;;5113076;28;20013;-85
2022/01/17 13:15:19;;;;;;;;;;;;;;;;;;5114490;28;20080;-85
2022/01/17 13:17:46;;;;;;;;;;;;;;;;;;5116039;28;19977;-84
2022/01/17 13:20:13;;;;;;;;;;;;;;;;;;5120555;28;20045;-84
2022/01/17 13:22:52;;;;;;;;;;;;;;;;;;5120174;28;20028;-85
2022/01/17 13:25:19;;;;;;;;;;;;;;;;;;5118172;28;19948;-85
2022/01/17 13:27:46;;;;;;;;;;;;;;;;;;5116828;28;20043;-83
2022/01/17 13:30:13;;;;;;;;;;;;;;;;;;5116512;28;20047;-84
2022/01/17 13:32:41;;;;;;;;;;;;;;;;;;5116705;28;20061;-83
2022/01/17 13:35:08;;;;;;;;;;;;;;;;;;5115905;28;19945;-84
2022/01/17 13:37:35;;;;;;;;;;;;;;;;;;5116810;28;20032;-85
2022/01/17 13:40:02;;;;;;;;;;;;;;;;;;5116301;28;20480;-84
2022/01/17 13:42:29;;;;;;;;;;;;;;;;;;5116464;28;20057;-86
2022/01/17 13:44:56;;;;;;;;;;;;;;;;;;5115776;28;20030;-84
2022/01/17 13:47:23;;;;;;;;;;;;;;;;;;5116594;28;20044;-84
2022/01/17 13:49:50;;;;;;;;;;;;;;;;;;5115222;28;20039;-84
2022/01/17 13:52:18;;;;;;;;;;;;;;;;;;5115209;28;20027;-83
2022/01/17 13:54:46;;;;;;;;;;;;;;;;;;5115789;28;19996;-85
2022/01/17 13:57:13;;;;;;;;;;;;;;;;;;5116129;28;20297;-83
2022/01/17 13:59:40;;;;;;;;;;;;;;;;;;5115755;28;20021;-82
2022/01/17 14:02:07;;;;;;;;;;;;;;;;;;5114959;28;20045;-82
2022/01/17 14:04:34;;;;;;;;;;;;;;;;;;5114607;28;19996;-83
2022/01/17 14:07:01;;;;;;;;;;;;;;;;;;5114679;28;20027;-83
2022/01/17 14:09:28;;;;;;;;;;;;;;;;;;5114950;28;19949;-83
2022/01/17 14:11:55;;;;;;;;;;;;;;;;;;5113522;28;19993;-83
2022/01/17 14:14:22;;;;;;;;;;;;;;;;;;5114449;28;20053;-83
2022/01/17 14:16:49;;;;;;;;;;;;;;;;;;5114631;28;20025;-84
2022/01/17 14:19:17;;;;;;;;;;;;;;;;;;5114023;27;20610;-83
2022/01/17 14:21:44;;;;;;;;;;;;;;;;;;5115017;27;19969;-83
2022/01/17 14:24:11;;;;;;;;;;;;;;;;;;5113933;28;20482;-82
2022/01/17 14:26:38;;;;;;;;;;;;;;;;;;5114669;28;20044;-84
2022/01/17 14:29:05;;;;;;;;;;;;;;;;;;5114061;28;20033;-84
2022/01/17 14:31:32;;;;;;;;;;;;;;;;;;5114353;28;20019;-83
2022/01/17 14:33:59;;;;;;;;;;;;;;;;;;5114523;28;20038;-84
2022/01/17 14:36:26;;;;;;;;;;;;;;;;;;5114966;28;20479;-85
2022/01/17 14:38:53;;;;;;;;;;;;;;;;;;5115503;28;20026;-83
2022/01/17 14:41:20;;;;;;;;;;;;;;;;;;5115444;28;19985;-83
2022/01/17 14:43:48;;;;;;;;;;;;;;;;;;5114964;28;19992;-83
2022/01/17 14:46:14;;;;;;;;;;;;;;;;;;5114606;28;20467;-82
2022/01/17 14:48:41;;;;;;;;;;;;;;;;;;5101007;28;20085;-83
2022/01/17 14:51:08;;;;;;;;;;;;;;;;;;5115180;28;20049;-83
2022/01/17 14:53:35;;;;;;;;;;;;;;;;;;5115267;28;20463;-82
2022/01/17 15:01:35;;;;;;;;;;;;;;;;;;5102648;28;19964;-82
2022/01/17 15:04:04;;;;;;;;;;;;;;;;;;5114822;28;19947;-83
2022/01/17 15:06:31;;;;;;;;;;;;;;;;;;5115011;28;19952;-84
2022/01/17 15:08:58;;;;;;;;;;;;;;;;;;5114712;28;20041;-84
2022/01/17 15:11:25;;;;;;;;;;;;;;;;;;5114376;28;20396;-83
2022/01/17 15:13:52;;;;;;;;;;;;;;;;;;5114822;28;19981;-84
2022/01/17 15:16:19;;;;;;;;;;;;;;;;;;5114575;28;20048;-82
2022/01/17 15:18:46;;;;;;;;;;;;;;;;;;5114047;28;20484;-85
2022/01/17 15:21:14;;;;;;;;;;;;;;;;;;5114479;28;20042;-84
2022/01/17 15:23:41;;;;;;;;;;;;;;;;;;5113977;28;20308;-84
2022/01/17 15:26:08;;;;;;;;;;;;;;;;;;5113688;28;20037;-84
2022/01/17 15:28:37;;;;;;;;;;;;;;;;;;5114100;28;19944;-83
2022/01/17 15:31:05;;;;;;;;;;;;;;;;;;5114501;28;20399;-84
2022/01/17 15:33:32;;;;;;;;;;;;;;;;;;5114002;28;20319;-84
2022/01/17 15:35:59;;;;;;;;;;;;;;;;;;5113806;28;20030;-84
2022/01/17 15:38:26;;;;;;;;;;;;;;;;;;5114169;28;20038;-84
2022/01/17 15:40:53;;;;;;;;;;;;;;;;;;5113303;28;20040;-82
2022/01/17 15:43:20;;;;;;;;;;;;;;;;;;5113257;28;20066;-83
2022/01/17 15:45:47;;;;;;;;;;;;;;;;;;5113787;28;20035;-83
2022/01/17 15:48:15;;;;;;;;;;;;;;;;;;5113687;28;20031;-84
2022/01/17 15:50:42;;;;;;;;;;;;;;;;;;5114077;28;19972;-84
2022/01/17 15:53:09;;;;;;;;;;;;;;;;;;5113651;28;20017;-84
2022/01/17 15:55:36;;;;;;;;;;;;;;;;;;5114489;28;19984;-84
2022/01/17 15:58:03;;;;;;;;;;;;;;;;;;5113754;28;19946;-84
2022/01/17 16:00:31;;;;;;;;;;;;;;;;;;5112849;28;19946;-84
2022/01/17 16:02:59;;;;;;;;;;;;;;;;;;5112770;28;20048;-83
2022/01/17 16:05:26;;;;;;;;;;;;;;;;;;5092181;28;20383;-84
2022/01/17 16:07:55;;;;;;;;;;;;;;;;;;5109541;28;19999;-84
2022/01/17 16:10:21;;;;;;;;;;;;;;;;;;5112197;28;20300;-82
2022/01/17 16:12:48;;;;;;;;;;;;;;;;;;5112392;28;20043;-82
2022/01/17 16:15:15;;;;;;;;;;;;;;;;;;5112660;28;20059;-82
2022/01/17 16:17:42;;;;;;;;;;;;;;;;;;5113587;28;20035;-82
2022/01/17 16:20:09;;;;;;;;;;;;;;;;;;5112959;28;20368;-81
2022/01/17 16:22:36;;;;;;;;;;;;;;;;;;5113859;28;20055;-81
2022/01/17 16:25:03;;;;;;;;;;;;;;;;;;5113428;28;20038;-82
2022/01/17 16:27:30;;;;;;;;;;;;;;;;;;5113880;28;20038;-81
2022/01/17 16:29:58;;;;;;;;;;;;;;;;;;5113506;28;20028;-82
2022/01/17 16:32:26;;;;;;;;;;;;;;;;;;5113676;28;19953;-82
2022/01/17 16:34:53;;;;;;;;;;;;;;;;;;5113306;28;20041;-82
2022/01/17 16:37:21;;;;;;;;;;;;;;;;;;5113665;28;19945;-82
2022/01/17 16:39:48;;;;;;;;;;;;;;;;;;5113609;28;19945;-82
2022/01/17 16:42:15;;;;;;;;;;;;;;;;;;5113478;28;20111;-82
2022/01/17 16:44:42;;;;;;;;;;;;;;;;;;5113743;28;20047;-84
2022/01/17 16:47:10;;;;;;;;;;;;;;;;;;5113238;28;20049;-84
2022/01/17 16:49:37;;;;;;;;;;;;;;;;;;5113735;28;19999;-84
2022/01/17 16:52:04;;;;;;;;;;;;;;;;;;5113738;28;20041;-86
2022/01/17 16:54:31;;;;;;;;;;;;;;;;;;5117559;27;19952;-85
2022/01/17 16:56:58;;;;;;;;;;;;;;;;;;5117999;28;20053;-85
2022/01/17 16:59:25;;;;;;;;;;;;;;;;;;5117717;28;20029;-86
2022/01/17 17:01:52;;;;;;;;;;;;;;;;;;5117895;28;19964;-85
2022/01/17 17:04:19;;;;;;;;;;;;;;;;;;5117745;28;20313;-85
2022/01/17 17:06:46;;;;;;;;;;;;;;;;;;5117473;28;19975;-85
2022/01/17 17:09:13;;;;;;;;;;;;;;;;;;5117190;28;20031;-85
2022/01/17 17:11:40;;;;;;;;;;;;;;;;;;5117469;28;20028;-86
2022/01/17 17:14:07;;;;;;;;;;;;;;;;;;5116694;28;20032;-85
2022/01/17 17:16:34;;;;;;;;;;;;;;;;;;5116914;27;20173;-85
2022/01/17 17:19:02;;;;;;;;;;;;;;;;;;5116630;28;20297;-84
2022/01/17 17:21:29;;;;;;;;;;;;;;;;;;5116980;28;19953;-85